Terminal Aerodrome Forecast
Issued by NWS Atlanta, GA

Home | Current Version | Previous Version | Text Only | Print | Product List | Glossary On
Versions: 1 2 3 4 5 6 7 8 9 10 11 12 13 14 15 16 17 18 19 20 21 22 23 24 25 26 27 28 29 30 31 32 33 34
000
FTUS42 KFFC 310500 RRA
TAFAHN
TAF
KAHN 310543Z 3106/0106 VRB03KT P6SM VCSH SCT015 BKN070
      TEMPO 3106/3107 VRB12G20KT -TSRA BKN020CB
     FM310700 00000KT P6SM FEW050 BKN100
     FM311000 00000KT 4SM BR SCT010 SCT200
     FM311400 21004KT P6SM SCT020 SCT250
     FM311800 24006KT P6SM SCT045 SCT150=

USA.gov is the U.S. government's official web portal to all federal, state and local government web resources and services.